Friday, July 25, 2014
09:05 UTC
  |  Log In   |  Register Free
Airport Search:

Farmington Regional Airport
(KFAM)

Farmington Regional Airport Diagram
No Airport Diagram Available

FAA data valid effective July 24, 2014 until September 18, 2014 (unless otherwise noted).

 
 
 
 
 
 
 
 
 
 
 
 
 
 

Current Aviation Weather for Farmington Regional Airport (KFAM)

The most recent METAR observation for KFAM was updated at: 0835 UTC
METAR Summary (Translated METAR)
KFAM
250835Z AUTO 00000KT 10SM CLR 14/13 A3007 RMK AO1
KSAR
(41.6 nm NE from KFAM)
250835Z AUTO 00000KT 10SM CLR 13/12 A3007 RMK AO2
TAF
No TAF information found within 50 nm of KFAM
  Airport Weather Conditions for KFAM

 Current Weather at FAM
57° F
Fair
North winds at 0.0 mph
FAM NOAA Radar

Pressure: 30.08 in
Humidity: 94%
Wind: Calm
Dew Point: 55.4°F
Visibility: 10.00 mi


Airport Weather Forecast for KFAM

Translated METAR and TAF for KFAM
Translated METAR for KFAM (0859 UTC 25 July 2014)
found at http://aviationweather.gov/adds/metars/
 
METAR text: KFAM 250855Z AUTO 00000KT 10SM CLR 13/12 A3006 RMK AO1 57007
Conditions at: KFAM (FARMINGTON , MO, US) observed 0855 UTC 25 July 2014
Temperature: 13.0°C (55°F)
Dewpoint: 12.0°C (54°F) [RH = 94%]
Pressure (altimeter): 30.06 inches Hg (1018.0 mb)
Winds: calm
Visibility: 10 or more miles (16+ km)
Ceiling: at least 12,000 feet AGL
Clouds: sky clear below 12,000 feet AGL
Weather: automated observation with no human augmentation;
there may or may not be significant weather present at this time
Translated TAF for KFAM

There is no translated TAF available for this airport

Find All Airport Services Find A Hotel Find A Rental Car Find A Golf Course Find A Restaurant $100 Hamburger



FBO's on the Field
FBO Company Facility Photos Services Transportation Aviation Fuel Prices: Prices include tax
Catering Weather Repair Courtesy Rental Type 100LL JetA JetA+ MOGAS 8087
 
Farmington Regional Airport

This FBO has not yet been rated
FS:Shell
Last Updated: Jul-18
Login to update fuel prices
SS:
Contact Farmington Regional AirportMore FBO Information
 
Add another FBO Facility Photos Catering Weather Repair Courtesy Rental Type 100LL JetA JetA+ MOGAS 8087
Services Transportation Aviation Fuel Prices: Prices include tax


GlobalAir.com Airport Resource Center model-print
model-print
model-print
model-print